Terminal Aerodrome Forecast
Issued by NWS

Home | Current Version | Previous Version | Text Only | Print | Product List | Glossary On
Versions: 1 2 3 4 5 6 7 8 9 10 11 12 13 14
000
FTUS41 KBTV 290520
TAFMPV
TAF
KMPV 290520Z 2906/3006 00000KT P6SM SCT028 BKN045
     FM290730 00000KT P6SM FEW045
      TEMPO 2908/2911 2SM BR SCT001
     FM291300 VRB02KT P6SM SKC
     FM291800 16005KT P6SM FEW050=

USA.gov is the U.S. government's official web portal to all federal, state and local government web resources and services.